Login to view products. 
Tuesday, February 28, 2017 (00:58 UTC)
Fujairah International Airport
ICAO Code: OMFJ
IATA Code: FJR
  • METAR OMFJ 280000Z 28012KT CAVOK 18/12 Q1016 RMK A3002=
  • TAF OMFJ 272300Z 2800/0106 29012KT 8000 NSC BECMG 2807/2809 07008KT BECMG 2816/2818 29012KT=